Terminal Aerodrome Forecast
Issued by NWS Sterling, VA

Current Version | Previous Version | Text Only | Print | Product List | Glossary Off
Versions: 1 2 3 4 5 6 7 8 9 10 11 12 13

000
FTUS41 KLWX 301100
TAFMRB
TAF
KMRB 301130Z 3012/3112 00000KT 5SM BR SCT250
     FM301300 VRB03KT P6SM SCT250
     FM301700 26005KT P6SM BKN050
     FM302300 24004KT P6SM SCT050
     FM310100 VRB03KT P6SM BKN050
     FM310300 00000KT P6SM SCT090=

USA.gov is the U.S. government's official web portal to all federal, state and local government web resources and services.